Time;durP1;ratioP1;P1;durP2;ratioP2;P2;SDS_P1;SDS_P2;PMS_P1;PMS_P2;Temp;Humidity;BMP_temperature;BMP_pressure;BME280_temperature;BME280_humidity;BME280_pressure;Samples;Min_cycle;Max_cycle;Signal;HPM_P1;HPM_P2
2021/10/30 00:00:47;;;;;;;78.83;46.33;;;;;;;2.03;100.00;99299.56;2088191;28;20242;-83
2021/10/30 00:01:49;;;;;;;77.35;45.45;;;;;;;1.99;100.00;99283.44;2088579;28;20273;-84
2021/10/30 00:02:50;;;;;;;95.18;49.63;;;;;;;1.91;100.00;99292.50;2080213;28;20306;-83
2021/10/30 00:03:51;;;;;;;92.65;51.90;;;;;;;1.91;100.00;99289.06;2088924;28;20222;-83
2021/10/30 00:04:53;;;;;;;85.20;48.87;;;;;;;1.88;100.00;99292.97;2079770;28;20285;-82
2021/10/30 00:05:54;;;;;;;98.03;50.55;;;;;;;1.88;100.00;99286.91;2080308;28;20616;-83
2021/10/30 00:06:59;;;;;;;96.80;51.60;;;;;;;1.82;100.00;99285.19;2080336;28;20242;-83
2021/10/30 00:08:01;;;;;;;95.30;50.28;;;;;;;1.81;100.00;99294.13;2080093;28;20247;-84
2021/10/30 00:09:02;;;;;;;77.45;44.05;;;;;;;1.80;100.00;99297.78;2080205;28;20222;-83
2021/10/30 00:10:04;;;;;;;81.47;47.75;;;;;;;1.77;100.00;99290.38;2080563;28;20713;-83
2021/10/30 00:11:07;;;;;;;86.05;48.67;;;;;;;1.76;100.00;99294.03;2080087;28;20302;-83
2021/10/30 00:12:08;;;;;;;89.20;50.13;;;;;;;1.73;100.00;99300.53;2071961;28;20228;-83
2021/10/30 00:13:12;;;;;;;94.25;51.47;;;;;;;1.68;100.00;99296.00;2088499;28;20230;-83
2021/10/30 00:14:14;;;;;;;77.32;47.30;;;;;;;1.69;100.00;99299.41;2088973;28;20221;-84
2021/10/30 00:15:15;;;;;;;80.60;47.37;;;;;;;1.66;100.00;99298.06;2080090;28;20231;-84
2021/10/30 00:16:19;;;;;;;95.28;50.03;;;;;;;1.65;100.00;99300.91;2080127;28;20278;-84
2021/10/30 00:17:20;;;;;;;85.03;50.95;;;;;;;1.60;100.00;99298.97;2080854;28;20227;-84
2021/10/30 00:18:21;;;;;;;96.30;53.45;;;;;;;1.59;100.00;99300.00;2080289;28;20223;-83
2021/10/30 00:19:23;;;;;;;87.73;52.70;;;;;;;1.58;100.00;99284.47;2079839;28;20295;-79
2021/10/30 00:20:24;;;;;;;110.68;58.00;;;;;;;1.62;100.00;99298.75;2088600;28;20547;-83
2021/10/30 00:21:26;;;;;;;112.97;58.25;;;;;;;1.65;100.00;99296.47;2087670;28;20234;-83
2021/10/30 00:22:29;;;;;;;101.43;55.13;;;;;;;1.66;100.00;99300.69;2088633;28;20231;-83
2021/10/30 00:23:30;;;;;;;97.68;52.05;;;;;;;1.67;100.00;99302.28;2087879;28;20229;-83
2021/10/30 00:24:32;;;;;;;107.32;58.65;;;;;;;1.68;100.00;99298.63;2080557;28;20223;-83
2021/10/30 00:25:34;;;;;;;81.57;49.22;;;;;;;1.69;100.00;99305.47;2079981;28;20281;-83
2021/10/30 00:26:34;;;;;;;90.57;49.90;;;;;;;1.67;100.00;99297.03;2088465;28;20624;-83
2021/10/30 00:27:37;;;;;;;86.37;48.27;;;;;;;1.66;100.00;99290.19;2089178;28;20317;-84
2021/10/30 00:28:42;;;;;;;86.38;48.00;;;;;;;1.64;100.00;99297.47;2088088;28;20219;-83
2021/10/30 00:29:43;;;;;;;88.22;50.47;;;;;;;1.59;100.00;99293.97;2080522;28;20227;-84
2021/10/30 00:30:44;;;;;;;82.85;47.10;;;;;;;1.57;100.00;99293.41;2080253;28;20227;-83
2021/10/30 00:31:46;;;;;;;94.00;51.17;;;;;;;1.54;100.00;99289.38;2088535;28;20792;-83
2021/10/30 00:32:47;;;;;;;81.72;46.72;;;;;;;1.52;100.00;99280.94;2089365;28;20245;-84
2021/10/30 00:33:48;;;;;;;86.43;47.43;;;;;;;1.51;100.00;99291.69;2089124;28;20223;-83
2021/10/30 00:34:51;;;;;;;98.47;49.75;;;;;;;1.46;100.00;99284.47;2088523;28;20284;-84
2021/10/30 00:35:53;;;;;;;84.43;47.65;;;;;;;1.47;100.00;99301.03;2071671;28;20571;-81
2021/10/30 00:36:54;;;;;;;99.18;53.10;;;;;;;1.44;100.00;99294.44;2080011;28;20223;-83
2021/10/30 00:37:56;;;;;;;99.13;53.97;;;;;;;1.47;100.00;99288.69;2088658;28;20223;-83
2021/10/30 00:38:57;;;;;;;111.95;56.65;;;;;;;1.54;100.00;99278.06;2087825;28;20567;-81
2021/10/30 00:39:59;;;;;;;103.30;54.15;;;;;;;1.60;100.00;99283.19;2088288;28;20614;-83
2021/10/30 00:41:05;;;;;;;94.20;53.90;;;;;;;1.62;100.00;99288.22;2080243;28;20224;-83
2021/10/30 00:42:07;;;;;;;94.65;52.50;;;;;;;1.61;100.00;99290.06;2088533;28;20245;-83
2021/10/30 00:43:08;;;;;;;107.68;56.38;;;;;;;1.60;100.00;99287.66;2088087;28;20226;-82
2021/10/30 00:44:11;;;;;;;100.60;51.43;;;;;;;1.61;100.00;99295.31;2080248;28;20234;-83
2021/10/30 00:45:12;;;;;;;94.50;54.22;;;;;;;1.57;100.00;99288.94;2088334;28;20317;-83
2021/10/30 00:46:15;;;;;;;98.40;53.87;;;;;;;1.61;100.00;99286.63;2088526;28;20219;-84
2021/10/30 00:47:16;;;;;;;102.55;56.72;;;;;;;1.63;100.00;99287.19;2088712;28;20576;-84
2021/10/30 00:48:21;;;;;;;101.28;55.15;;;;;;;1.66;100.00;99284.91;2096778;28;20249;-83
2021/10/30 00:49:24;;;;;;;100.78;55.22;;;;;;;1.68;100.00;99282.03;2096255;28;20241;-79
2021/10/30 00:50:26;;;;;;;98.13;52.83;;;;;;;1.70;100.00;99287.88;2088984;28;20234;-84
2021/10/30 00:51:29;;;;;;;104.05;55.08;;;;;;;1.68;100.00;99293.38;2088378;28;20239;-83
2021/10/30 00:52:31;;;;;;;90.97;51.83;;;;;;;1.63;100.00;99277.47;2088600;28;20253;-83
2021/10/30 00:53:32;;;;;;;89.13;50.72;;;;;;;1.65;100.00;99290.38;2096647;28;20271;-81
2021/10/30 00:54:36;;;;;;;109.38;54.60;;;;;;;1.63;100.00;99287.19;2079909;28;20281;-84
2021/10/30 00:55:39;;;;;;;103.18;55.05;;;;;;;1.66;100.00;99282.28;2088078;28;20239;-83
2021/10/30 00:56:43;;;;;;;88.97;52.95;;;;;;;1.64;100.00;99294.03;2088457;28;20230;-83
2021/10/30 00:57:45;;;;;;;90.03;52.10;;;;;;;1.65;100.00;99291.22;2080340;28;20243;-83
2021/10/30 00:58:48;;;;;;;101.07;54.22;;;;;;;1.73;100.00;99284.75;2080983;28;20219;-83
2021/10/30 00:59:51;;;;;;;109.05;58.90;;;;;;;1.87;100.00;99285.31;2080768;28;20234;-84
2021/10/30 01:00:53;;;;;;;104.97;56.65;;;;;;;1.91;100.00;99286.44;2079748;28;20227;-80
2021/10/30 01:01:54;;;;;;;107.40;56.80;;;;;;;1.95;100.00;99282.31;2079812;28;20233;-83
2021/10/30 01:02:56;;;;;;;114.20;59.03;;;;;;;2.01;100.00;99283.22;2080904;28;20238;-83
2021/10/30 01:03:57;;;;;;;104.75;54.47;;;;;;;1.99;100.00;99278.97;2079996;28;20228;-83
2021/10/30 01:04:59;;;;;;;101.43;56.70;;;;;;;2.01;100.00;99286.66;2071830;28;20303;-83
2021/10/30 01:06:00;;;;;;;106.65;54.63;;;;;;;1.99;100.00;99273.69;2080308;28;20457;-83
2021/10/30 01:07:03;;;;;;;92.33;54.90;;;;;;;1.98;100.00;99282.63;2088306;28;20226;-84
2021/10/30 01:08:06;;;;;;;111.70;56.97;;;;;;;1.97;100.00;99275.78;2088190;28;20469;-83
2021/10/30 01:09:08;;;;;;;96.05;50.90;;;;;;;1.95;100.00;99271.78;2080190;28;20228;-80
2021/10/30 01:10:10;;;;;;;96.93;53.08;;;;;;;1.90;100.00;99266.41;2080712;28;20697;-83
2021/10/30 01:11:12;;;;;;;88.25;50.17;;;;;;;1.82;100.00;99269.41;2079989;28;20242;-83
2021/10/30 01:12:13;;;;;;;95.85;51.97;;;;;;;1.80;100.00;99274.13;2071746;28;20227;-83
2021/10/30 01:13:14;;;;;;;101.05;52.38;;;;;;;1.75;100.00;99277.47;2087256;28;20226;-83
2021/10/30 01:14:16;;;;;;;91.63;54.17;;;;;;;1.73;100.00;99283.97;2088707;28;20257;-84
2021/10/30 01:15:18;;;;;;;104.55;54.67;;;;;;;1.69;100.00;99276.53;2088053;28;20226;-83
2021/10/30 01:16:22;;;;;;;98.53;52.10;;;;;;;1.63;100.00;99269.59;2079743;28;20264;-83
2021/10/30 01:17:24;;;;;;;96.10;51.67;;;;;;;1.61;100.00;99276.91;2081392;28;20227;-83
2021/10/30 01:18:25;;;;;;;99.27;51.60;;;;;;;1.60;100.00;99275.31;2081181;28;20674;-83
2021/10/30 01:19:27;;;;;;;96.45;52.05;;;;;;;1.58;100.00;99264.22;2081568;28;20592;-83
2021/10/30 01:20:31;;;;;;;87.70;50.75;;;;;;;1.53;100.00;99258.84;2081669;28;20231;-83
2021/10/30 01:21:33;;;;;;;92.95;50.58;;;;;;;1.54;100.00;99260.44;2082183;28;20303;-83
2021/10/30 01:22:36;;;;;;;93.53;52.38;;;;;;;1.48;100.00;99253.50;2082069;28;20294;-84
2021/10/30 01:23:40;;;;;;;98.32;52.50;;;;;;;1.50;100.00;99250.66;2086961;28;20235;-79
2021/10/30 01:24:43;;;;;;;92.72;51.92;;;;;;;1.46;100.00;99250.28;2089591;28;20232;-84
2021/10/30 01:25:45;;;;;;;100.47;52.53;;;;;;;1.46;100.00;99254.75;2081298;28;20231;-83
2021/10/30 01:26:47;;;;;;;88.43;49.65;;;;;;;1.45;100.00;99251.31;2073475;28;20303;-84
2021/10/30 01:27:48;;;;;;;86.13;49.42;;;;;;;1.40;100.00;99249.41;2081309;28;20223;-84
2021/10/30 01:28:51;;;;;;;91.13;49.53;;;;;;;1.38;100.00;99251.44;2081200;28;20219;-84
2021/10/30 01:29:51;;;;;;;94.07;50.67;;;;;;;1.35;100.00;99251.13;2083595;28;20238;-84
2021/10/30 01:30:54;;;;;;;84.82;49.75;;;;;;;1.34;100.00;99254.78;2089148;28;20693;-83
2021/10/30 01:31:55;;;;;;;90.18;50.63;;;;;;;1.33;100.00;99245.31;2081346;28;20696;-83
2021/10/30 01:32:59;;;;;;;89.43;49.30;;;;;;;1.31;100.00;99250.00;2079681;28;27769;-83
2021/10/30 01:34:03;;;;;;;86.78;49.42;;;;;;;1.28;100.00;99253.06;2080438;28;20228;-83
2021/10/30 01:35:06;;;;;;;91.25;50.60;;;;;;;1.28;100.00;99261.75;2073763;28;20227;-83
2021/10/30 01:36:10;;;;;;;101.45;52.50;;;;;;;1.28;100.00;99258.31;2073212;28;20224;-82
2021/10/30 01:37:12;;;;;;;103.15;54.60;;;;;;;1.31;100.00;99256.06;2073186;28;20228;-83
2021/10/30 01:38:13;;;;;;;97.40;54.55;;;;;;;1.37;100.00;99249.06;2077373;28;20578;-83
2021/10/30 01:39:16;;;;;;;105.50;55.20;;;;;;;1.48;100.00;99253.50;2081046;28;20223;-84
2021/10/30 01:40:17;;;;;;;102.25;54.53;;;;;;;1.59;100.00;99249.25;2081026;28;20230;-84
2021/10/30 01:41:20;;;;;;;106.37;55.50;;;;;;;1.63;100.00;99259.06;2081166;28;20705;-84
2021/10/30 01:42:21;;;;;;;104.40;55.58;;;;;;;1.73;100.00;99258.47;2080767;28;20219;-83
2021/10/30 01:43:25;;;;;;;96.43;55.23;;;;;;;1.71;100.00;99244.75;2074399;28;20694;-79
2021/10/30 01:44:27;;;;;;;95.88;54.50;;;;;;;1.73;100.00;99252.41;2081420;28;20239;-83
2021/10/30 01:45:30;;;;;;;97.88;54.38;;;;;;;1.77;100.00;99253.56;2080605;28;20226;-83
2021/10/30 01:46:32;;;;;;;107.90;55.20;;;;;;;1.72;100.00;99250.81;2073148;28;20275;-83
2021/10/30 01:47:33;;;;;;;100.85;53.80;;;;;;;1.66;100.00;99245.47;2073009;28;20220;-83
2021/10/30 01:48:37;;;;;;;101.78;54.15;;;;;;;1.65;100.00;99251.75;2072301;28;20220;-83
2021/10/30 01:49:40;;;;;;;103.05;55.08;;;;;;;1.61;100.00;99250.63;2087093;28;20226;-83
2021/10/30 01:50:42;;;;;;;96.85;54.22;;;;;;;1.57;100.00;99244.22;2081080;28;20227;-83
2021/10/30 01:51:44;;;;;;;100.82;55.28;;;;;;;1.54;100.00;99251.78;2080081;28;20768;-83
2021/10/30 01:52:47;;;;;;;99.15;55.50;;;;;;;1.51;100.00;99245.16;2081024;28;20302;-83
2021/10/30 01:53:48;;;;;;;106.47;53.67;;;;;;;1.48;100.00;99245.63;2081218;28;20219;-83
2021/10/30 01:54:50;;;;;;;100.15;54.88;;;;;;;1.45;100.00;99238.19;2081135;28;20632;-84
2021/10/30 01:55:51;;;;;;;105.65;54.25;;;;;;;1.46;100.00;99241.59;2080779;28;20238;-84
2021/10/30 01:56:53;;;;;;;91.40;52.20;;;;;;;1.43;100.00;99242.88;2088679;28;20369;-78
2021/10/30 01:57:55;;;;;;;100.97;53.38;;;;;;;1.41;100.00;99240.50;2089675;28;20352;-84
2021/10/30 01:58:57;;;;;;;92.43;52.78;;;;;;;1.37;100.00;99228.81;2088930;28;20227;-83
2021/10/30 01:59:58;;;;;;;94.40;52.03;;;;;;;1.37;100.00;99233.28;2080976;28;20294;-83
2021/10/30 02:01:01;;;;;;;96.60;52.87;;;;;;;1.38;100.00;99237.50;2089141;28;20226;-83
2021/10/30 02:02:02;;;;;;;89.78;50.67;;;;;;;1.36;100.00;99226.44;2088822;28;20575;-83
2021/10/30 02:03:04;;;;;;;89.43;50.43;;;;;;;1.32;100.00;99231.38;2089211;28;20308;-83
2021/10/30 02:04:07;;;;;;;85.93;49.13;;;;;;;1.27;100.00;99226.00;2097254;28;20437;-84
2021/10/30 02:05:10;;;;;;;86.68;49.55;;;;;;;1.24;100.00;99229.09;2088543;28;20229;-82
2021/10/30 02:06:12;;;;;;;90.38;52.30;;;;;;;1.20;100.00;99224.50;2088842;28;20235;-83
2021/10/30 02:07:14;;;;;;;88.30;51.20;;;;;;;1.16;100.00;99228.66;2097125;28;20222;-83
2021/10/30 02:08:16;;;;;;;97.97;53.25;;;;;;;1.13;100.00;99228.06;2097433;28;20599;-83
2021/10/30 02:09:17;;;;;;;92.90;52.22;;;;;;;1.10;100.00;99227.72;2089177;28;20754;-83
2021/10/30 02:10:19;;;;;;;89.17;53.00;;;;;;;1.07;100.00;99225.56;2081009;28;20285;-83
2021/10/30 02:11:21;;;;;;;92.53;53.33;;;;;;;1.03;100.00;99225.22;2088956;28;20279;-84
2021/10/30 02:12:23;;;;;;;91.22;51.20;;;;;;;1.03;100.00;99229.66;2074126;28;20224;-81
2021/10/30 02:13:24;;;;;;;97.03;54.50;;;;;;;1.04;100.00;99233.88;2083594;28;20223;-83
2021/10/30 02:14:26;;;;;;;100.60;53.45;;;;;;;1.06;100.00;99230.03;2083227;28;20246;-83
2021/10/30 02:15:27;;;;;;;101.47;54.60;;;;;;;1.13;100.00;99235.97;2089270;28;20300;-83
2021/10/30 02:16:28;;;;;;;109.63;58.13;;;;;;;1.23;100.00;99231.94;2080756;28;20224;-83
2021/10/30 02:17:29;;;;;;;106.22;58.55;;;;;;;1.28;100.00;99230.22;2072289;28;20570;-83
2021/10/30 02:18:33;;;;;;;113.75;58.08;;;;;;;1.34;100.00;99228.50;2076682;28;20223;-84
2021/10/30 02:19:34;;;;;;;99.57;55.25;;;;;;;1.35;100.00;99230.91;2072915;28;20294;-84
2021/10/30 02:20:36;;;;;;;95.33;55.20;;;;;;;1.36;100.00;99231.69;2072477;28;20224;-84
2021/10/30 02:21:37;;;;;;;112.85;58.38;;;;;;;1.32;100.00;99220.84;2080506;28;20219;-77
2021/10/30 02:22:40;;;;;;;103.43;54.63;;;;;;;1.35;100.00;99225.63;2080657;28;20609;-83
2021/10/30 02:23:41;;;;;;;99.97;57.33;;;;;;;1.34;100.00;99225.88;2080687;28;20253;-83
2021/10/30 02:24:45;;;;;;;100.13;54.47;;;;;;;1.33;100.00;99230.34;2089216;28;20226;-83
2021/10/30 02:25:47;;;;;;;100.85;53.95;;;;;;;1.30;100.00;99227.34;2089510;28;20241;-83
2021/10/30 02:26:49;;;;;;;94.28;52.25;;;;;;;1.29;100.00;99225.75;2089920;28;20223;-83
2021/10/30 02:27:51;;;;;;;110.30;56.17;;;;;;;1.28;100.00;99226.78;2089454;28;20227;-83
2021/10/30 02:28:53;;;;;;;96.85;56.33;;;;;;;1.26;100.00;99231.47;2089629;28;20248;-77
2021/10/30 02:29:53;;;;;;;107.60;55.95;;;;;;;1.28;100.00;99238.09;2088442;28;20230;-83
2021/10/30 02:30:57;;;;;;;109.10;57.53;;;;;;;1.36;100.00;99236.94;2080508;28;20234;-83
2021/10/30 02:31:57;;;;;;;101.70;56.85;;;;;;;1.55;100.00;99227.88;2089314;28;20235;-83
2021/10/30 02:33:00;;;;;;;106.78;57.85;;;;;;;1.66;100.00;99232.31;2088729;28;20689;-83
2021/10/30 02:34:01;;;;;;;108.57;56.88;;;;;;;1.80;100.00;99226.78;2089168;28;20230;-83
2021/10/30 02:35:03;;;;;;;106.37;54.97;;;;;;;1.90;100.00;99229.59;2089270;28;20219;-83
2021/10/30 02:36:04;;;;;;;102.15;54.90;;;;;;;1.97;100.00;99233.69;2088903;28;20253;-83
2021/10/30 02:37:07;;;;;;;98.90;54.37;;;;;;;2.05;100.00;99240.41;2088879;28;20222;-83
2021/10/30 02:38:09;;;;;;;99.55;54.40;;;;;;;2.05;100.00;99231.69;2088973;28;20223;-83
2021/10/30 02:39:11;;;;;;;103.55;54.70;;;;;;;2.03;100.00;99228.53;2089493;28;20227;-83
2021/10/30 02:40:13;;;;;;;97.65;53.80;;;;;;;2.11;100.00;99242.09;2088746;28;20731;-83
2021/10/30 02:41:14;;;;;;;97.30;53.97;;;;;;;2.13;100.00;99237.38;2088816;28;20285;-83
2021/10/30 02:42:15;;;;;;;97.10;52.95;;;;;;;2.19;100.00;99238.28;2089515;28;20222;-83
2021/10/30 02:43:17;;;;;;;95.87;52.67;;;;;;;2.17;100.00;99230.63;2089565;28;20365;-83
2021/10/30 02:44:19;;;;;;;97.68;50.80;;;;;;;2.21;100.00;99239.63;2088754;28;20268;-84
2021/10/30 02:45:23;;;;;;;84.97;51.00;;;;;;;2.21;100.00;99238.84;2088944;28;20276;-83
2021/10/30 02:46:24;;;;;;;98.32;52.75;;;;;;;2.30;100.00;99232.16;2088126;28;20662;-83
2021/10/30 02:47:26;;;;;;;93.05;50.45;;;;;;;2.32;100.00;99230.06;2080695;28;20550;-83
2021/10/30 02:48:28;;;;;;;87.53;49.65;;;;;;;2.36;100.00;99235.69;2082018;28;20227;-82
2021/10/30 02:49:28;;;;;;;89.72;49.80;;;;;;;2.31;100.00;99225.84;2081103;28;20218;-83
2021/10/30 02:50:30;;;;;;;90.93;48.73;;;;;;;2.35;100.00;99228.81;2081239;28;20227;-83
2021/10/30 02:51:31;;;;;;;85.35;49.20;;;;;;;2.48;100.00;99237.19;2080250;28;20246;-83
2021/10/30 02:52:33;;;;;;;92.60;50.60;;;;;;;2.44;100.00;99236.09;2080224;28;20219;-84
2021/10/30 02:53:38;;;;;;;90.47;50.50;;;;;;;2.36;100.00;99231.22;2080514;28;20658;-83
2021/10/30 02:54:39;;;;;;;100.07;51.20;;;;;;;2.30;100.00;99232.16;2080121;28;20265;-83
2021/10/30 02:55:41;;;;;;;88.40;50.58;;;;;;;2.21;100.00;99225.69;2072443;28;20568;-83
2021/10/30 02:56:42;;;;;;;97.25;50.95;;;;;;;2.14;100.00;99228.44;2072327;28;20290;-83
2021/10/30 02:57:48;;;;;;;88.67;50.30;;;;;;;2.07;100.00;99229.63;2072504;28;20691;-83
2021/10/30 02:58:49;;;;;;;94.57;52.40;;;;;;;2.00;100.00;99229.78;2073069;28;20235;-84
2021/10/30 02:59:53;;;;;;;98.30;50.70;;;;;;;1.97;100.00;99227.63;2072168;28;20591;-84
2021/10/30 03:00:57;;;;;;;89.65;51.63;;;;;;;1.93;100.00;99224.66;2079911;28;20227;-83
2021/10/30 03:01:59;;;;;;;90.43;51.45;;;;;;;1.95;100.00;99224.44;2080171;28;20324;-83
2021/10/30 03:03:02;;;;;;;97.22;51.28;;;;;;;1.94;100.00;99221.00;2072303;28;20339;-83
2021/10/30 03:04:03;;;;;;;81.90;49.63;;;;;;;1.90;100.00;99221.69;2071987;28;20278;-84
2021/10/30 03:05:05;;;;;;;99.53;51.23;;;;;;;1.87;100.00;99219.53;2080115;28;20215;-84
2021/10/30 03:06:08;;;;;;;86.82;50.08;;;;;;;1.86;100.00;99220.59;2088228;28;20569;-83
2021/10/30 03:07:12;;;;;;;89.22;50.85;;;;;;;1.81;100.00;99223.09;2088651;28;20226;-84
2021/10/30 03:08:13;;;;;;;88.20;49.30;;;;;;;1.77;100.00;99216.72;2081359;28;20235;-84
2021/10/30 03:09:15;;;;;;;90.85;50.95;;;;;;;1.74;100.00;99222.44;2081216;28;20277;-84
2021/10/30 03:10:17;;;;;;;93.45;51.30;;;;;;;1.71;100.00;99223.72;2080123;28;20310;-83
2021/10/30 03:11:18;;;;;;;96.10;53.80;;;;;;;1.67;100.00;99220.75;2080397;28;20230;-83
2021/10/30 03:12:20;;;;;;;86.28;50.88;;;;;;;1.67;100.00;99222.59;2080070;28;20230;-84
2021/10/30 03:13:23;;;;;;;91.65;51.38;;;;;;;1.64;100.00;99221.22;2071951;28;20266;-84
2021/10/30 03:14:25;;;;;;;90.75;49.95;;;;;;;1.62;100.00;99227.75;2088359;28;20372;-84
2021/10/30 03:15:28;;;;;;;91.32;51.97;;;;;;;1.63;100.00;99219.63;2096682;28;20603;-84
2021/10/30 03:16:28;;;;;;;92.53;53.13;;;;;;;1.63;100.00;99222.25;2089283;28;20226;-84
2021/10/30 03:17:31;;;;;;;94.20;53.42;;;;;;;1.62;100.00;99220.66;2089283;28;20220;-84
2021/10/30 03:18:33;;;;;;;97.93;53.65;;;;;;;1.65;100.00;99220.22;2089080;28;20302;-84
2021/10/30 03:19:34;;;;;;;94.10;53.67;;;;;;;1.63;100.00;99210.94;2088870;28;20223;-84
2021/10/30 03:20:35;;;;;;;94.65;53.03;;;;;;;1.63;100.00;99219.63;2088381;28;20759;-84
2021/10/30 03:21:37;;;;;;;96.83;53.33;;;;;;;1.63;100.00;99222.25;2096328;28;20623;-84
2021/10/30 03:22:39;;;;;;;99.20;52.75;;;;;;;1.62;100.00;99215.38;2096244;28;20229;-83
2021/10/30 03:23:39;;;;;;;95.38;52.38;;;;;;;1.59;100.00;99221.13;2082646;28;20234;-84
2021/10/30 03:24:43;;;;;;;94.00;54.70;;;;;;;1.58;100.00;99214.28;2081026;28;20231;-84
2021/10/30 03:25:43;;;;;;;93.03;52.20;;;;;;;1.59;100.00;99221.13;2080243;28;20239;-84
2021/10/30 03:26:45;;;;;;;88.90;49.77;;;;;;;1.56;100.00;99212.88;2080492;28;20231;-84
2021/10/30 03:27:46;;;;;;;88.15;50.55;;;;;;;1.54;100.00;99212.34;2080428;28;20223;-84
2021/10/30 03:28:50;;;;;;;83.83;51.17;;;;;;;1.50;100.00;99219.91;2080341;28;20289;-84
2021/10/30 03:29:51;;;;;;;88.10;52.50;;;;;;;1.47;100.00;99217.72;2081177;28;20582;-84
2021/10/30 03:30:53;;;;;;;99.13;55.27;;;;;;;1.47;100.00;99216.91;2080940;28;20331;-80
2021/10/30 03:31:53;;;;;;;89.38;52.22;;;;;;;1.47;100.00;99215.09;2079950;28;20230;-83
2021/10/30 03:32:55;;;;;;;99.47;55.08;;;;;;;1.47;100.00;99209.81;2071556;28;20227;-84
2021/10/30 03:33:56;;;;;;;95.82;52.17;;;;;;;1.50;100.00;99212.00;2073747;28;20228;-84
2021/10/30 03:35:00;;;;;;;99.47;53.17;;;;;;;1.46;100.00;99213.50;2078995;28;20310;-84
2021/10/30 03:36:02;;;;;;;91.32;54.15;;;;;;;1.47;100.00;99222.97;2088566;28;20256;-84
2021/10/30 03:37:06;;;;;;;92.88;53.08;;;;;;;1.46;100.00;99226.63;2089205;28;20253;-84
2021/10/30 03:38:08;;;;;;;100.90;55.10;;;;;;;1.46;100.00;99221.38;2087115;28;20218;-83
2021/10/30 03:39:31;;;;;;;96.75;53.35;;;;;;;1.46;100.00;99216.13;2089124;28;20237;-83
2021/10/30 03:40:33;;;;;;;100.40;54.33;;;;;;;1.48;100.00;99221.97;2088721;28;20218;-84
2021/10/30 03:41:35;;;;;;;101.85;52.63;;;;;;;1.51;100.00;99220.69;2088545;28;20222;-84
2021/10/30 03:42:41;;;;;;;97.50;53.80;;;;;;;1.51;100.00;99216.22;2088484;28;20302;-84
2021/10/30 03:43:43;;;;;;;101.15;54.63;;;;;;;1.50;100.00;99214.63;2088551;28;20218;-84
2021/10/30 03:44:45;;;;;;;93.63;53.03;;;;;;;1.50;100.00;99214.63;2089221;28;20291;-84
2021/10/30 03:45:45;;;;;;;97.53;56.30;;;;;;;1.51;100.00;99208.34;2089384;28;20218;-84
2021/10/30 03:46:48;;;;;;;105.03;53.88;;;;;;;1.55;100.00;99208.66;2088913;28;20310;-84
2021/10/30 03:47:49;;;;;;;99.28;54.92;;;;;;;1.55;100.00;99213.94;2096476;28;20302;-83
2021/10/30 03:48:52;;;;;;;86.85;51.58;;;;;;;1.55;100.00;99212.09;2088109;28;20588;-84
2021/10/30 03:49:53;;;;;;;98.05;54.90;;;;;;;1.58;100.00;99214.28;2080181;28;20278;-83
2021/10/30 03:50:55;;;;;;;101.10;53.60;;;;;;;1.58;100.00;99216.91;2086923;28;20219;-84
2021/10/30 03:51:56;;;;;;;97.18;53.53;;;;;;;1.58;100.00;99213.47;2088598;28;20226;-84
2021/10/30 03:52:57;;;;;;;95.03;54.03;;;;;;;1.55;100.00;99211.28;2089270;28;20324;-83
2021/10/30 03:53:58;;;;;;;94.50;54.78;;;;;;;1.55;100.00;99212.09;2088480;28;20230;-84
2021/10/30 03:55:01;;;;;;;97.50;53.80;;;;;;;1.53;100.00;99211.53;2080048;28;20304;-84
2021/10/30 03:56:04;;;;;;;93.45;53.10;;;;;;;1.53;100.00;99211.53;2088822;28;20226;-84
2021/10/30 03:57:07;;;;;;;102.82;55.15;;;;;;;1.52;100.00;99209.16;2089184;28;20677;-84
2021/10/30 03:58:08;;;;;;;97.10;55.08;;;;;;;1.54;100.00;99210.50;2081001;28;20219;-83
2021/10/30 03:59:10;;;;;;;104.80;54.90;;;;;;;1.55;100.00;99216.56;2081474;28;20234;-83
2021/10/30 04:00:12;;;;;;;100.43;56.00;;;;;;;1.54;100.00;99213.13;2088266;28;20231;-84
2021/10/30 04:01:18;;;;;;;94.20;53.83;;;;;;;1.54;100.00;99213.13;2088002;28;20222;-84
2021/10/30 04:02:22;;;;;;;100.05;54.80;;;;;;;1.53;100.00;99216.78;2080752;28;20223;-84
2021/10/30 04:03:25;;;;;;;99.80;54.20;;;;;;;1.55;100.00;99219.19;2079878;28;20234;-84
2021/10/30 04:04:25;;;;;;;100.05;53.55;;;;;;;1.53;100.00;99211.53;2078825;28;20236;-84
2021/10/30 04:05:27;;;;;;;106.57;55.50;;;;;;;1.52;100.00;99204.69;2080419;28;23144;-83
2021/10/30 04:06:29;;;;;;;105.00;54.95;;;;;;;1.57;100.00;99217.94;2080542;28;20311;-84
2021/10/30 04:07:29;;;;;;;93.22;53.75;;;;;;;1.56;100.00;99218.94;2080262;28;20219;-83
2021/10/30 04:08:31;;;;;;;89.90;51.83;;;;;;;1.56;100.00;99207.63;2080206;28;20277;-84
2021/10/30 04:09:35;;;;;;;98.15;54.75;;;;;;;1.57;100.00;99220.56;2072458;28;20240;-84
2021/10/30 04:10:39;;;;;;;99.10;55.22;;;;;;;1.57;100.00;99211.88;2072246;28;20219;-84
2021/10/30 04:11:41;;;;;;;97.15;55.95;;;;;;;1.55;100.00;99208.66;2080439;28;20231;-83
2021/10/30 04:12:43;;;;;;;99.75;54.03;;;;;;;1.54;100.00;99209.69;2088465;28;20231;-83
2021/10/30 04:13:44;;;;;;;102.65;56.53;;;;;;;1.52;100.00;99203.88;2089152;28;20276;-83
2021/10/30 04:14:46;;;;;;;93.40;53.67;;;;;;;1.50;100.00;99204.13;2089334;28;20703;-84
2021/10/30 04:15:46;;;;;;;100.53;56.00;;;;;;;1.54;100.00;99209.69;2088511;28;20239;-84
2021/10/30 04:16:49;;;;;;;91.00;53.93;;;;;;;1.54;100.00;99207.06;2079853;28;20309;-84
2021/10/30 04:17:50;;;;;;;104.10;56.30;;;;;;;1.52;100.00;99203.88;2072630;28;20255;-84
2021/10/30 04:18:51;;;;;;;97.27;54.00;;;;;;;1.52;100.00;99204.69;2071095;28;20306;-84
2021/10/30 04:19:52;;;;;;;101.20;54.08;;;;;;;1.51;100.00;99197.84;2079871;28;20231;-82
2021/10/30 04:20:54;;;;;;;90.40;51.30;;;;;;;1.48;100.00;99193.06;2080641;28;20301;-83
2021/10/30 04:21:55;;;;;;;95.70;52.28;;;;;;;1.48;100.00;99193.06;2079933;28;20231;-84
2021/10/30 04:22:57;;;;;;;101.63;53.83;;;;;;;1.46;100.00;99189.84;2080203;28;20234;-84
2021/10/30 04:23:58;;;;;;;102.75;54.92;;;;;;;1.47;100.00;99188.78;2079845;28;20286;-83
2021/10/30 04:25:00;;;;;;;102.43;54.40;;;;;;;1.46;100.00;99189.84;2080382;28;20231;-83
2021/10/30 04:26:01;;;;;;;91.80;52.58;;;;;;;1.42;100.00;99189.50;2079885;28;20223;-84
2021/10/30 04:27:05;;;;;;;90.57;52.30;;;;;;;1.41;100.00;99187.13;2079994;28;20240;-84
2021/10/30 04:28:06;;;;;;;102.22;53.40;;;;;;;1.40;100.00;99190.78;2080675;28;20681;-84
2021/10/30 04:29:08;;;;;;;100.93;54.50;;;;;;;1.40;100.00;99182.91;2086920;28;20655;-78
2021/10/30 04:30:09;;;;;;;93.43;55.08;;;;;;;1.38;100.00;99184.94;2088448;28;20297;-83
2021/10/30 04:31:19;;;;;;;100.90;55.15;;;;;;;1.35;100.00;99177.53;2081020;28;20222;-83
2021/10/30 04:32:20;;;;;;;98.00;54.20;;;;;;;1.35;100.00;99174.91;2079895;28;20231;-84
2021/10/30 04:33:21;;;;;;;95.30;54.50;;;;;;;1.33;100.00;99175.13;2080091;28;20227;-84
2021/10/30 04:34:30;;;;;;;89.95;53.85;;;;;;;1.30;100.00;99169.53;2079663;28;20651;-83
2021/10/30 04:35:32;;;;;;;92.93;54.70;;;;;;;1.32;100.00;99175.38;2081024;28;20219;-84
2021/10/30 04:36:35;;;;;;;90.10;52.67;;;;;;;1.29;100.00;99175.81;2080674;28;20223;-84
2021/10/30 04:37:39;;;;;;;94.70;54.38;;;;;;;1.28;100.00;99185.53;2080440;28;20273;-84
2021/10/30 04:38:42;;;;;;;92.50;54.15;;;;;;;1.28;100.00;99182.91;2080475;28;20720;-84
2021/10/30 04:39:45;;;;;;;98.43;54.20;;;;;;;1.27;100.00;99185.78;2079799;28;20215;-83
2021/10/30 04:40:46;;;;;;;98.22;55.15;;;;;;;1.24;100.00;99184.41;2072046;28;20223;-83
2021/10/30 04:41:48;;;;;;;98.63;54.93;;;;;;;1.21;100.00;99170.91;2079877;28;20243;-84
2021/10/30 04:42:50;;;;;;;89.55;53.53;;;;;;;1.19;100.00;99176.41;2087757;28;20226;-84
2021/10/30 04:43:52;;;;;;;98.57;55.22;;;;;;;1.16;100.00;99178.72;2071755;28;20678;-84
2021/10/30 04:44:53;;;;;;;102.32;55.80;;;;;;;1.13;100.00;99185.25;2081097;28;20230;-83